Airfield :
LOGIN :

Register | Disclaimer

   EN    FR    IT 

 










Legend :    VFR   Marginal VFR   IFR   Intensive IFR   Very Intensive IFR
Visi :
Ceiling :
>= 8 km
>= 3000ft
5 to 8 km
1000 to 3000 ft
1500m to 5 km
500 to 1000 ft
800 to 1500m
200 to 500 ft
< 800m
< 200 ft
Symbols :   Thunderstorms  Fog  Heavy snow  Heavy precipitations  Wind > 20 kt
SIGMETs :     Misc.  Thunderstorms  Icing  Turbulence  Mountain Waves  Volcanic Ashes







- Airport Elevation : 183 ft
- IATA code : HAJ


EDDV - Hanover/Langenhagen Int.

CURRENT METAR :
  • 241950Z 29006KT 9999 FEW040 08/05 Q1033 NOSIG

EXPIRED METARs :
  • 241920Z 26005KT 230V310 9999 FEW040 08/06 Q1032 NOSIG
  • 241850Z 29004KT 260V320 9999 FEW040 07/05 Q1032 NOSIG
  • 241820Z 28006KT 9999 FEW020 07/06 Q1032 NOSIG
  • 241750Z 28006KT 9999 FEW016 SCT040 08/06 Q1031 NOSIG
  • 241720Z 31009KT 9999 VCSH FEW016 FEW025CB 09/06 Q1031 NOSIG

TAF TAF EDDV
Valid from the 24 at 18:00 until the 25 at 18:00 UTC


241700Z 2418/2518 30010G20KT 9999 FEW030
BECMG 2418/2420 27007KT
BECMG 2516/2518 20005KT
No reported NOTAMs for that airfield.



MET'MAP, your aeronautical weather chart ! - Copyright ORBIFLY December 2007 - Disclaimer

ORBIFLY MET'MAP TEAM :

Programming & Development : Alexandra Zaïnal
Concept & Development : Baudouin d'Aumeries
Co-Development & Prog : Marc-Olivier Méhu
Technical & hardware support : Manuel Goepfert

Contact : metmap@orbifly.com




SOURCES & CREDITS :

   NOAA